Météo Nord-Pas-de-Calais   La météo au plus près de chez vous

Station météorologique

Observations météo à Dunkerque (59183)

59183001 11 m Dernier relevé à 05:42
21.1°C
Humidité 87 % Vent 24.1 km/h 1014.6 hPa

Journée consultée

Vendredi 4 Septembre 2026

Synthèse de la journée

Périodes de référence en UTC

Température maximale

22.8°C

à 17:00

06h 06h

Température minimale

20.3°C

à 04:00

18h 18h

Rafale maximale

47 km/h

à 05:36

00h 00h

Précipitations

0.2 mm

Cumul quotidien

06h 06h

Graphiques de la journée

Heure locale Réduire

Données détaillées

Relevés météo

Pas de 6 minutes Afficher les relevés infra-horaires
Relevés météo détaillés à Dunkerque pour le Vendredi 4 Septembre 2026
Heure Température °C Point de rosée °C Humidité % Vent moyen (raf.), km/h Précipitations mm Pression hPa
05:42 21.1 °C 18.8 °C 87 % 24 km/h (47 km/h) 0 mm0 mm 1014 hPa
05:36 21 °C 18.8 °C 87 % 23 km/h (47 km/h) 0 mm0 mm 1014.1 hPa
05:30 21 °C 18.6 °C 86 % 23 km/h (37 km/h) 0 mm0 mm 1014.2 hPa
05:24 21 °C 18.8 °C 87 % 22 km/h (42 km/h) 0 mm0 mm 1014.2 hPa
05:18 21 °C 18.8 °C 87 % 23 km/h (42 km/h) 0 mm0 mm 1014.2 hPa
05:12 20.9 °C 18.7 °C 87 % 22 km/h (41 km/h) 0 mm0 mm 1014.3 hPa
05:06 20.9 °C 18.7 °C 87 % 23 km/h (39 km/h) 0 mm0 mm 1014.4 hPa
05:00 20.9 °C 18.7 °C 87 % 22 km/h (39 km/h) 0 mm0 mm 1014.5 hPa
04:54 20.9 °C 18.7 °C 87 % 22 km/h (43 km/h) 0 mm0 mm 1014.6 hPa
04:48 20.8 °C 18.6 °C 87 % 23 km/h (43 km/h) 0 mm0 mm 1014.7 hPa
04:42 20.6 °C 18.4 °C 87 % 24 km/h (41 km/h) 0 mm0 mm 1014.6 hPa
04:36 20.7 °C 18.5 °C 87 % 22 km/h (37 km/h) 0 mm0 mm 1014.6 hPa
04:30 20.7 °C 18.5 °C 87 % 20 km/h (35 km/h) 0 mm0 mm 1014.7 hPa
04:24 20.8 °C 18.4 °C 86 % 20 km/h (36 km/h) 0 mm0 mm 1014.8 hPa
04:18 20.8 °C 18.4 °C 86 % 22 km/h (40 km/h) 0 mm0 mm 1014.9 hPa
04:12 20.8 °C 18.4 °C 86 % 21 km/h (40 km/h) 0 mm0 mm 1014.9 hPa
04:06 20.7 °C 18.3 °C 86 % 19 km/h (36 km/h) 0 mm0 mm 1015 hPa
04:00 20.7 °C 18.3 °C 86 % 18 km/h (33 km/h) 0 mm0 mm 1015.1 hPa
03:54 20.7 °C 18.3 °C 86 % 17 km/h (30 km/h) 0 mm0 mm 1015.2 hPa
03:48 20.7 °C 18.3 °C 86 % 20 km/h (38 km/h) 0 mm0 mm 1015.2 hPa
03:42 20.7 °C 18.3 °C 86 % 18 km/h (38 km/h) 0 mm0 mm 1015.3 hPa
03:36 20.6 °C 18.2 °C 86 % 18 km/h (35 km/h) 0 mm0 mm 1015.4 hPa
03:30 20.6 °C 18.4 °C 87 % 21 km/h (40 km/h) 0 mm0 mm 1015.4 hPa
03:24 20.5 °C 18.1 °C 86 % 22 km/h (40 km/h) 0 mm0 mm 1015.4 hPa
03:18 20.5 °C 18.3 °C 87 % 22 km/h (37 km/h) 0 mm0 mm 1015.5 hPa
03:12 20.4 °C 18.2 °C 87 % 24 km/h (43 km/h) 0 mm0 mm 1015.5 hPa
03:06 20.4 °C 18 °C 86 % 24 km/h (39 km/h) 0 mm0 mm 1015.5 hPa
03:00 20.6 °C 18 °C 85 % 23 km/h (41 km/h) 0 mm0 mm 1015.5 hPa
02:54 20.7 °C 18.3 °C 86 % 23 km/h (41 km/h) 0 mm0 mm 1015.6 hPa
02:48 20.7 °C 18.3 °C 86 % 23 km/h (38 km/h) 0 mm0 mm 1015.7 hPa
02:42 20.6 °C 18 °C 85 % 24 km/h (42 km/h) 0 mm0 mm 1015.7 hPa
02:36 20.7 °C 18.1 °C 85 % 24 km/h (42 km/h) 0 mm0 mm 1015.8 hPa
02:30 20.7 °C 18.1 °C 85 % 24 km/h (46 km/h) 0 mm0 mm 1015.9 hPa
02:24 20.6 °C 17.8 °C 84 % 24 km/h (41 km/h) 0 mm0 mm 1016 hPa
02:18 20.7 °C 18.1 °C 85 % 24 km/h (44 km/h) 0 mm0 mm 1016.1 hPa
02:12 20.7 °C 18.1 °C 85 % 22 km/h (44 km/h) 0 mm0 mm 1016.2 hPa
02:06 20.8 °C 18.2 °C 85 % 24 km/h (47 km/h) 0 mm0 mm 1016.2 hPa
02:00 20.6 °C 18 °C 85 % 24 km/h (49 km/h) 0 mm0 mm 1016.2 hPa
01:54 20.7 °C 18.3 °C 86 % 22 km/h (42 km/h) 0 mm0 mm 1016.3 hPa
01:48 20.7 °C 18.1 °C 85 % 22 km/h (41 km/h) 0 mm0 mm 1016.3 hPa
01:42 20.6 °C 18.2 °C 86 % 22 km/h (41 km/h) 0 mm0 mm 1016.2 hPa
01:36 20.7 °C 18.5 °C 87 % 22 km/h (37 km/h) 0 mm0 mm 1016.4 hPa
01:30 20.7 °C 18.5 °C 87 % 21 km/h (42 km/h) 0 mm0 mm 1016.4 hPa
01:24 20.7 °C 18.3 °C 86 % 22 km/h (42 km/h) 0 mm0 mm 1016.4 hPa
01:18 20.8 °C 18.6 °C 87 % 22 km/h (41 km/h) 0 mm0 mm 1016.5 hPa
01:12 20.8 °C 18.6 °C 87 % 22 km/h (41 km/h) 0 mm0 mm 1016.6 hPa
01:06 20.8 °C 18.6 °C 87 % 22 km/h (39 km/h) 0 mm0 mm 1016.7 hPa
01:00 20.8 °C 18.7 °C 88 % 23 km/h (41 km/h) 0 mm0 mm 1016.7 hPa
00:54 20.7 °C 18.8 °C 89 % 23 km/h (37 km/h) 0 mm0 mm 1016.6 hPa
00:48 20.8 °C 18.7 °C 88 % 24 km/h (41 km/h) 0 mm0 mm 1016.7 hPa
00:42 20.8 °C 18.9 °C 89 % 24 km/h (41 km/h) 0 mm0 mm 1016.8 hPa
00:36 20.8 °C 18.9 °C 89 % 22 km/h (39 km/h) 0 mm0 mm 1016.9 hPa
00:30 20.7 °C 18.8 °C 89 % 19 km/h (32 km/h) 0 mm0 mm 1016.9 hPa
00:24 20.7 °C 18.8 °C 89 % 20 km/h (37 km/h) 0 mm0 mm 1017 hPa
00:18 20.8 °C 19.1 °C 90 % 25 km/h (39 km/h) 0 mm0 mm 1017.2 hPa
00:12 20.9 °C 19 °C 89 % 27 km/h (48 km/h) 0 mm0 mm 1017.3 hPa
00:06 20.8 °C 18.7 °C 88 % 30 km/h (49 km/h) 0 mm0 mm 1017.3 hPa
00:00 21 °C 18.9 °C 88 % 27 km/h (49 km/h) 0 mm0 mm 1017.2 hPa

Données via Météo-France

Relevés météo à Dunkerque

Cette page rassemble les observations de la station de Dunkerque : température, humidité, vent, précipitations et pression atmosphérique. Les graphiques facilitent le suivi de la journée, tandis que le tableau donne accès aux mesures horaires et infra-horaires disponibles.

Pour replacer ces mesures dans leur contexte, consultez la climatologie de Dunkerque ainsi que ses normales et records. Retrouvez aussi la carte des observations météo en temps réel.